Time;durP1;ratioP1;P1;durP2;ratioP2;P2;SDS_P1;SDS_P2;PMS_P1;PMS_P2;Temp;Humidity;BMP_temperature;BMP_pressure;BME280_temperature;BME280_humidity;BME280_pressure;Samples;Min_cycle;Max_cycle;Signal;HPM_P1;HPM_P2
2021/03/13 00:02:19;;;;;;;22.48;2.85;;;;;;;;;;4985764;28;20480;-72
2021/03/13 00:04:45;;;;;;;15.90;2.50;;;;;;;;;;4985810;28;20058;-70
2021/03/13 00:07:11;;;;;;;20.40;2.50;;;;;;;;;;4991070;28;20026;-73
2021/03/13 00:09:37;;;;;;;13.88;2.47;;;;;;;;;;4988958;28;20432;-73
2021/03/13 00:12:03;;;;;;;16.70;2.97;;;;;;;;;;4982616;28;20045;-66
2021/03/13 00:14:29;;;;;;;25.80;3.40;;;;;;;;;;4987627;28;20034;-73
2021/03/13 00:16:55;;;;;;;15.43;2.70;;;;;;;;;;4987374;28;20026;-75
2021/03/13 00:19:21;;;;;;;10.18;2.40;;;;;;;;;;4987764;28;20022;-75
2021/03/13 00:21:47;;;;;;;17.48;2.70;;;;;;;;;;4978769;28;20033;-72
2021/03/13 00:24:13;;;;;;;18.52;2.80;;;;;;;;;;4987442;28;20026;-74
2021/03/13 00:26:42;;;;;;;14.80;2.28;;;;;;;;;;4990728;28;20085;-75
2021/03/13 00:29:08;;;;;;;15.27;3.08;;;;;;;;;;4989452;28;20113;-73
2021/03/13 00:31:34;;;;;;;9.57;2.30;;;;;;;;;;4989326;28;20027;-72
2021/03/13 00:34:00;;;;;;;18.92;2.53;;;;;;;;;;4989088;28;20033;-75
2021/03/13 00:36:26;;;;;;;9.10;2.53;;;;;;;;;;4988599;28;20081;-73
2021/03/13 00:38:52;;;;;;;14.60;2.20;;;;;;;;;;4993307;28;20030;-69
2021/03/13 00:41:18;;;;;;;15.38;2.67;;;;;;;;;;4992610;28;20023;-71
2021/03/13 00:43:44;;;;;;;17.48;3.15;;;;;;;;;;4988615;28;20030;-75
2021/03/13 00:46:10;;;;;;;16.40;1.98;;;;;;;;;;4993493;28;20029;-76
2021/03/13 00:48:36;;;;;;;21.38;2.85;;;;;;;;;;4985684;28;20093;-74
2021/03/13 00:51:02;;;;;;;15.98;2.72;;;;;;;;;;4993151;28;20034;-73
2021/03/13 00:53:28;;;;;;;10.68;2.13;;;;;;;;;;4986264;28;20113;-74
2021/03/13 00:55:54;;;;;;;14.75;2.90;;;;;;;;;;4992640;28;20034;-74
2021/03/13 00:58:20;;;;;;;21.10;3.17;;;;;;;;;;4994417;28;20019;-74
2021/03/13 01:00:46;;;;;;;8.15;2.03;;;;;;;;;;4990514;28;20042;-70
2021/03/13 01:03:12;;;;;;;3.90;1.38;;;;;;;;;;4985177;28;20117;-72
2021/03/13 01:05:38;;;;;;;11.70;2.63;;;;;;;;;;4992341;28;20037;-73
2021/03/13 01:08:06;;;;;;;10.73;2.05;;;;;;;;;;4994720;28;20030;-71
2021/03/13 01:10:34;;;;;;;5.85;1.38;;;;;;;;;;4987031;28;20022;-70
2021/03/13 01:13:00;;;;;;;6.65;1.88;;;;;;;;;;4984263;28;20034;-72
2021/03/13 01:15:26;;;;;;;19.05;4.47;;;;;;;;;;4992529;28;20033;-71
2021/03/13 01:17:52;;;;;;;5.03;1.10;;;;;;;;;;4989445;28;20034;-71
2021/03/13 01:20:19;;;;;;;8.63;1.20;;;;;;;;;;4980862;28;20029;-75
2021/03/13 01:22:45;;;;;;;16.27;2.03;;;;;;;;;;4983460;28;20023;-76
2021/03/13 01:25:12;;;;;;;8.10;2.45;;;;;;;;;;4977138;28;20081;-75
2021/03/13 01:27:39;;;;;;;6.32;1.48;;;;;;;;;;4985038;28;20034;-75
2021/03/13 01:30:06;;;;;;;6.68;1.40;;;;;;;;;;4988056;28;20042;-79
2021/03/13 01:32:32;;;;;;;7.95;0.98;;;;;;;;;;4993452;28;20026;-68
2021/03/13 01:34:58;;;;;;;12.82;2.17;;;;;;;;;;4992422;28;20105;-66
2021/03/13 01:37:25;;;;;;;6.95;1.48;;;;;;;;;;4987770;28;20030;-68
2021/03/13 01:39:51;;;;;;;11.90;2.22;;;;;;;;;;4986386;28;20033;-70
2021/03/13 01:42:17;;;;;;;4.60;1.27;;;;;;;;;;4980442;28;20536;-71
2021/03/13 01:44:43;;;;;;;15.15;2.67;;;;;;;;;;4989551;28;20014;-67
2021/03/13 01:47:20;;;;;;;8.18;1.77;;;;;;;;;;4992160;28;20030;-74
2021/03/13 01:49:47;;;;;;;4.20;1.35;;;;;;;;;;5001799;28;20122;-69
2021/03/13 01:52:13;;;;;;;9.73;1.70;;;;;;;;;;4989156;28;20503;-69
2021/03/13 01:54:39;;;;;;;9.50;2.55;;;;;;;;;;4991661;28;20052;-68
2021/03/13 01:57:05;;;;;;;9.15;1.92;;;;;;;;;;4991421;28;20030;-71
2021/03/13 01:59:31;;;;;;;12.82;3.60;;;;;;;;;;4981246;28;20023;-70
2021/03/13 02:01:57;;;;;;;7.07;2.75;;;;;;;;;;4993832;28;20076;-73
2021/03/13 02:04:24;;;;;;;9.00;2.88;;;;;;;;;;4986846;28;20381;-76
2021/03/13 02:07:03;;;;;;;13.23;2.85;;;;;;;;;;4983217;28;20073;-75
2021/03/13 02:09:38;;;;;;;14.27;3.35;;;;;;;;;;4988554;28;20100;-69
2021/03/13 02:12:37;;;;;;;15.32;3.67;;;;;;;;;;4993178;28;20034;-70
2021/03/13 02:15:07;;;;;;;16.63;4.43;;;;;;;;;;4966771;28;20038;-69
2021/03/13 02:17:38;;;;;;;9.85;2.63;;;;;;;;;;4984079;28;20031;-68
2021/03/13 02:20:17;;;;;;;11.18;2.80;;;;;;;;;;4988939;28;20030;-76
2021/03/13 02:22:45;;;;;;;11.55;3.05;;;;;;;;;;4991380;28;20030;-72
2021/03/13 02:25:33;;;;;;;16.80;3.42;;;;;;;;;;4982518;28;20034;-65
2021/03/13 02:28:11;;;;;;;12.98;2.85;;;;;;;;;;4989408;28;20030;-75
2021/03/13 02:30:38;;;;;;;9.80;2.67;;;;;;;;;;4988506;28;20400;-68
2021/03/13 02:33:10;;;;;;;8.73;2.17;;;;;;;;;;4988554;28;20531;-74
2021/03/13 02:35:39;;;;;;;16.63;3.13;;;;;;;;;;4990833;28;20497;-72
2021/03/13 02:38:18;;;;;;;8.15;1.98;;;;;;;;;;4988063;28;20060;-74
2021/03/13 02:40:46;;;;;;;15.57;2.63;;;;;;;;;;4982475;28;20528;-74
2021/03/13 02:43:13;;;;;;;9.75;2.65;;;;;;;;;;4992117;28;20535;-70
2021/03/13 02:45:41;;;;;;;8.27;2.72;;;;;;;;;;4984496;28;20037;-77
2021/03/13 02:48:09;;;;;;;10.38;2.28;;;;;;;;;;4989811;28;20030;-72
2021/03/13 02:50:35;;;;;;;8.93;3.03;;;;;;;;;;4986972;28;20046;-73
2021/03/13 02:53:02;;;;;;;10.30;2.60;;;;;;;;;;4987936;28;20034;-67
2021/03/13 02:55:28;;;;;;;11.68;2.13;;;;;;;;;;4989560;28;20054;-72
2021/03/13 02:57:56;;;;;;;8.15;2.10;;;;;;;;;;4982114;28;20552;-72
2021/03/13 03:00:23;;;;;;;10.55;1.95;;;;;;;;;;4989179;28;20027;-75
2021/03/13 03:02:52;;;;;;;7.60;1.92;;;;;;;;;;4985979;28;20116;-72
2021/03/13 03:05:19;;;;;;;9.55;1.65;;;;;;;;;;4988813;28;20034;-74
2021/03/13 03:07:46;;;;;;;9.60;2.05;;;;;;;;;;4985233;28;20088;-77
2021/03/13 03:10:14;;;;;;;14.32;2.22;;;;;;;;;;4988413;28;20027;-72
2021/03/13 03:12:41;;;;;;;7.05;1.90;;;;;;;;;;4990797;28;20080;-67
2021/03/13 03:15:08;;;;;;;8.75;3.15;;;;;;;;;;4987786;28;20027;-76
2021/03/13 03:17:34;;;;;;;6.25;1.75;;;;;;;;;;4978597;28;20030;-71
2021/03/13 03:20:01;;;;;;;9.10;2.13;;;;;;;;;;4987721;28;20125;-72
2021/03/13 03:22:27;;;;;;;8.27;1.85;;;;;;;;;;4984852;28;20023;-74
2021/03/13 03:24:54;;;;;;;7.13;2.15;;;;;;;;;;4985260;28;20011;-75
2021/03/13 03:27:20;;;;;;;5.25;1.50;;;;;;;;;;4987769;28;20027;-69
2021/03/13 03:29:46;;;;;;;9.90;2.95;;;;;;;;;;4988139;28;20022;-69
2021/03/13 03:32:12;;;;;;;7.15;1.63;;;;;;;;;;4983677;28;20045;-74
2021/03/13 03:34:38;;;;;;;7.53;2.00;;;;;;;;;;4990488;28;20022;-72
2021/03/13 03:37:06;;;;;;;13.10;3.03;;;;;;;;;;4990053;28;20038;-70
2021/03/13 03:39:32;;;;;;;10.48;2.17;;;;;;;;;;4980466;28;20018;-70
2021/03/13 03:41:59;;;;;;;9.77;2.38;;;;;;;;;;4989879;28;20031;-72
2021/03/13 03:44:27;;;;;;;9.48;1.90;;;;;;;;;;4991020;28;20077;-68
2021/03/13 03:46:59;;;;;;;13.23;2.70;;;;;;;;;;4978557;28;20030;-69
2021/03/13 03:49:25;;;;;;;15.80;2.78;;;;;;;;;;4985508;28;20646;-69
2021/03/13 03:51:52;;;;;;;8.60;1.60;;;;;;;;;;4981514;28;20031;-71
2021/03/13 03:54:18;;;;;;;10.80;2.42;;;;;;;;;;4980629;28;20041;-67
2021/03/13 03:56:45;;;;;;;12.48;2.13;;;;;;;;;;4983326;28;20507;-73
2021/03/13 03:59:14;;;;;;;5.80;1.60;;;;;;;;;;4984145;28;20034;-70
2021/03/13 04:01:43;;;;;;;8.93;2.92;;;;;;;;;;4987262;28;20035;-70
2021/03/13 04:04:10;;;;;;;10.00;2.42;;;;;;;;;;4980639;28;20029;-69
2021/03/13 04:06:37;;;;;;;9.07;2.15;;;;;;;;;;4987018;28;20034;-71
2021/03/13 04:09:04;;;;;;;7.60;1.67;;;;;;;;;;4980211;28;20045;-70
2021/03/13 04:11:30;;;;;;;13.88;2.90;;;;;;;;;;4989705;28;20038;-71
2021/03/13 04:13:58;;;;;;;9.38;2.75;;;;;;;;;;4982083;28;20026;-71
2021/03/13 04:16:24;;;;;;;9.55;2.65;;;;;;;;;;4988475;28;20066;-69
2021/03/13 04:18:50;;;;;;;11.90;2.55;;;;;;;;;;4985603;28;20046;-68
2021/03/13 04:21:17;;;;;;;10.35;2.63;;;;;;;;;;4990281;28;20050;-70
2021/03/13 04:23:45;;;;;;;7.90;1.70;;;;;;;;;;4988565;28;20429;-68
2021/03/13 04:26:11;;;;;;;13.13;2.47;;;;;;;;;;4981589;28;20030;-72
2021/03/13 04:28:37;;;;;;;9.98;3.15;;;;;;;;;;4988131;28;20130;-67
2021/03/13 04:31:05;;;;;;;13.98;2.88;;;;;;;;;;4981937;28;20027;-69
2021/03/13 04:33:32;;;;;;;12.85;3.85;;;;;;;;;;4986876;28;20192;-67
2021/03/13 04:35:58;;;;;;;14.32;2.92;;;;;;;;;;4978505;28;20041;-67
2021/03/13 04:38:25;;;;;;;16.63;3.35;;;;;;;;;;4979400;28;20018;-69
2021/03/13 04:40:51;;;;;;;30.73;5.15;;;;;;;;;;4988029;28;20507;-69
2021/03/13 04:43:20;;;;;;;25.77;6.30;;;;;;;;;;4986550;28;20060;-71
2021/03/13 04:45:47;;;;;;;30.98;5.47;;;;;;;;;;4989605;28;20058;-69
2021/03/13 04:48:14;;;;;;;26.23;6.32;;;;;;;;;;4988585;28;20035;-69
2021/03/13 04:50:41;;;;;;;38.70;5.40;;;;;;;;;;4979079;28;20097;-70
2021/03/13 04:53:07;;;;;;;25.75;5.05;;;;;;;;;;4988250;28;20066;-71
2021/03/13 04:55:33;;;;;;;26.88;4.30;;;;;;;;;;4986937;28;20117;-70
2021/03/13 04:57:59;;;;;;;25.55;4.68;;;;;;;;;;4989534;28;20026;-68
2021/03/13 05:00:25;;;;;;;24.10;4.32;;;;;;;;;;4989223;28;20023;-67
2021/03/13 05:02:51;;;;;;;21.92;3.95;;;;;;;;;;4983156;28;20038;-69
2021/03/13 05:05:17;;;;;;;15.43;3.13;;;;;;;;;;4987832;28;20050;-70
2021/03/13 05:07:44;;;;;;;29.90;3.83;;;;;;;;;;4987129;28;20023;-68
2021/03/13 05:10:10;;;;;;;21.50;3.88;;;;;;;;;;4985668;28;20027;-66
2021/03/13 05:12:36;;;;;;;21.42;3.95;;;;;;;;;;4989960;28;20015;-69
2021/03/13 05:15:03;;;;;;;21.02;5.35;;;;;;;;;;4987202;28;20520;-68
2021/03/13 05:17:29;;;;;;;22.35;3.67;;;;;;;;;;4986101;28;20030;-64
2021/03/13 05:19:55;;;;;;;20.67;4.45;;;;;;;;;;4982068;28;20169;-70
2021/03/13 05:22:21;;;;;;;16.73;3.28;;;;;;;;;;4994372;28;20177;-68
2021/03/13 05:24:47;;;;;;;19.05;4.85;;;;;;;;;;4988843;28;20026;-67
2021/03/13 05:27:13;;;;;;;14.50;3.83;;;;;;;;;;4993096;28;20025;-70
2021/03/13 05:29:39;;;;;;;23.73;3.88;;;;;;;;;;4980742;28;20030;-67
2021/03/13 05:32:05;;;;;;;21.83;3.25;;;;;;;;;;4983212;28;20081;-69
2021/03/13 05:34:31;;;;;;;17.80;3.38;;;;;;;;;;4992831;28;20050;-71
2021/03/13 05:36:58;;;;;;;32.00;3.67;;;;;;;;;;4993902;28;20036;-69
2021/03/13 05:39:24;;;;;;;14.25;2.38;;;;;;;;;;4990604;28;20042;-68
2021/03/13 05:41:51;;;;;;;21.38;3.72;;;;;;;;;;4990734;28;20031;-68
2021/03/13 05:44:17;;;;;;;20.25;4.15;;;;;;;;;;4986946;28;20022;-66
2021/03/13 05:46:44;;;;;;;14.48;2.47;;;;;;;;;;4985196;28;20034;-68
2021/03/13 05:49:10;;;;;;;15.80;2.95;;;;;;;;;;4980730;28;20050;-67
2021/03/13 05:51:37;;;;;;;37.80;4.35;;;;;;;;;;4986714;28;20031;-65
2021/03/13 05:54:04;;;;;;;34.55;6.53;;;;;;;;;;4986303;28;20039;-66
2021/03/13 05:56:30;;;;;;;27.60;5.18;;;;;;;;;;4981648;28;20080;-67
2021/03/13 05:58:57;;;;;;;33.42;4.10;;;;;;;;;;4989667;28;20026;-68
2021/03/13 06:01:23;;;;;;;33.70;5.88;;;;;;;;;;4981922;28;20027;-67
2021/03/13 06:03:49;;;;;;;24.70;5.38;;;;;;;;;;4990185;28;20030;-70
2021/03/13 06:06:16;;;;;;;27.95;4.00;;;;;;;;;;4989220;28;20109;-72
2021/03/13 06:08:43;;;;;;;38.60;5.35;;;;;;;;;;4987770;28;20096;-71
2021/03/13 06:11:09;;;;;;;26.42;5.15;;;;;;;;;;4976779;28;20022;-70
2021/03/13 06:13:35;;;;;;;25.85;4.13;;;;;;;;;;4984321;28;20030;-70
2021/03/13 06:16:01;;;;;;;30.40;5.32;;;;;;;;;;4990037;28;20030;-69
2021/03/13 06:18:47;;;;;;;26.02;5.75;;;;;;;;;;4989911;28;20037;-68
2021/03/13 06:21:25;;;;;;;35.42;7.47;;;;;;;;;;4990667;28;20034;-67
2021/03/13 06:23:56;;;;;;;49.05;6.57;;;;;;;;;;4983442;28;20734;-69
2021/03/13 06:26:22;;;;;;;31.00;3.83;;;;;;;;;;4976937;28;20034;-70
2021/03/13 06:28:48;;;;;;;32.33;6.65;;;;;;;;;;4981213;28;20170;-68
2021/03/13 06:31:14;;;;;;;25.10;3.80;;;;;;;;;;4987489;28;20037;-69
2021/03/13 06:33:41;;;;;;;25.98;4.68;;;;;;;;;;4990930;28;20520;-69
2021/03/13 06:36:11;;;;;;;27.88;4.57;;;;;;;;;;4980158;28;20173;-71
2021/03/13 06:38:37;;;;;;;33.10;5.38;;;;;;;;;;4986021;28;20103;-67
2021/03/13 06:41:20;;;;;;;28.85;5.20;;;;;;;;;;4979687;28;20022;-69
2021/03/13 06:43:46;;;;;;;26.48;6.07;;;;;;;;;;4990014;28;20050;-70
2021/03/13 06:46:12;;;;;;;25.67;4.78;;;;;;;;;;4990233;28;20034;-66
2021/03/13 06:48:40;;;;;;;35.47;5.47;;;;;;;;;;4984606;28;20503;-63
2021/03/13 06:51:18;;;;;;;20.95;4.80;;;;;;;;;;4983463;28;20109;-66
2021/03/13 06:53:46;;;;;;;32.67;6.18;;;;;;;;;;4982763;28;20050;-66
2021/03/13 06:56:12;;;;;;;44.10;8.23;;;;;;;;;;4983056;28;20030;-66
2021/03/13 06:58:39;;;;;;;39.28;7.00;;;;;;;;;;4981865;28;20026;-68
2021/03/13 07:01:06;;;;;;;41.47;7.68;;;;;;;;;;4983290;28;20073;-67
2021/03/13 07:03:32;;;;;;;46.25;8.98;;;;;;;;;;4979567;28;20053;-67
2021/03/13 07:05:59;;;;;;;39.78;6.50;;;;;;;;;;4980671;28;20113;-68
2021/03/13 07:08:28;;;;;;;14.13;3.55;;;;;;;;;;4981308;28;20118;-69
2021/03/13 07:11:03;;;;;;;27.05;4.60;;;;;;;;;;4986008;28;20605;-65
2021/03/13 07:13:33;;;;;;;25.67;4.70;;;;;;;;;;4988175;28;20599;-70
2021/03/13 07:16:18;;;;;;;32.78;4.35;;;;;;;;;;4982484;28;20040;-69
2021/03/13 07:18:45;;;;;;;37.33;5.00;;;;;;;;;;4978743;28;20034;-70
2021/03/13 07:21:12;;;;;;;42.28;6.78;;;;;;;;;;4984183;28;20037;-69
2021/03/13 07:23:38;;;;;;;37.83;5.88;;;;;;;;;;4983313;28;20167;-71
2021/03/13 07:26:05;;;;;;;36.75;4.53;;;;;;;;;;4984064;28;20031;-66
2021/03/13 07:28:32;;;;;;;44.05;9.85;;;;;;;;;;4980073;28;20034;-70
2021/03/13 07:31:00;;;;;;;42.33;5.88;;;;;;;;;;4985007;28;20042;-71
2021/03/13 07:33:28;;;;;;;31.65;5.32;;;;;;;;;;4979851;28;20026;-71
2021/03/13 07:35:55;;;;;;;39.72;8.45;;;;;;;;;;4987273;28;20043;-70
2021/03/13 07:38:22;;;;;;;35.15;6.47;;;;;;;;;;4982130;28;20019;-69
2021/03/13 07:40:48;;;;;;;40.20;7.82;;;;;;;;;;4978070;28;20069;-73
2021/03/13 07:43:17;;;;;;;46.08;7.10;;;;;;;;;;4978286;28;20025;-71
2021/03/13 07:45:46;;;;;;;41.20;8.15;;;;;;;;;;4983598;28;20130;-66
2021/03/13 07:48:14;;;;;;;40.10;6.40;;;;;;;;;;4985192;28;20034;-71
2021/03/13 07:50:41;;;;;;;39.80;8.68;;;;;;;;;;4982425;28;20059;-69
2021/03/13 07:53:07;;;;;;;40.53;6.60;;;;;;;;;;4984344;28;20030;-68
2021/03/13 07:55:34;;;;;;;41.15;7.40;;;;;;;;;;4981206;28;20019;-68
2021/03/13 07:58:01;;;;;;;43.53;6.35;;;;;;;;;;4980644;28;20026;-70
2021/03/13 08:00:47;;;;;;;41.03;6.25;;;;;;;;;;4980123;28;20040;-68
2021/03/13 08:03:32;;;;;;;43.65;8.70;;;;;;;;;;4983394;28;20037;-66
2021/03/13 08:05:59;;;;;;;54.95;8.95;;;;;;;;;;4983563;28;20037;-70
2021/03/13 08:08:38;;;;;;;45.97;8.57;;;;;;;;;;4982679;28;20046;-69
2021/03/13 08:11:04;;;;;;;34.88;6.57;;;;;;;;;;4988458;28;20019;-67
2021/03/13 08:13:30;;;;;;;41.30;8.18;;;;;;;;;;4988227;28;20053;-68
2021/03/13 08:16:09;;;;;;;33.05;5.57;;;;;;;;;;4978647;28;20027;-72
2021/03/13 08:18:45;;;;;;;32.13;7.15;;;;;;;;;;4976051;28;20528;-78
2021/03/13 08:21:20;;;;;;;43.55;7.03;;;;;;;;;;4983983;28;20023;-70
2021/03/13 08:23:53;;;;;;;37.55;7.10;;;;;;;;;;4980747;28;20034;-73
2021/03/13 08:26:21;;;;;;;43.33;7.43;;;;;;;;;;4986614;28;20031;-66
2021/03/13 08:31:25;;;;;;;58.20;6.60;;;;;;;;;;4983716;28;20031;-68
2021/03/13 08:33:51;;;;;;;33.28;6.05;;;;;;;;;;4986942;28;20026;-68
2021/03/13 08:36:18;;;;;;;35.60;6.82;;;;;;;;;;4978865;28;20030;-70
2021/03/13 08:39:11;;;;;;;41.40;6.00;;;;;;;;;;4979918;28;20077;-74
2021/03/13 08:41:37;;;;;;;76.45;6.72;;;;;;;;;;4972801;28;20031;-71
2021/03/13 08:44:03;;;;;;;34.15;8.98;;;;;;;;;;4981071;28;20034;-73
2021/03/13 08:46:50;;;;;;;39.35;6.90;;;;;;;;;;4984823;28;20031;-71
2021/03/13 08:49:25;;;;;;;36.42;5.88;;;;;;;;;;4970261;28;20049;-74
2021/03/13 08:52:10;;;;;;;41.53;6.97;;;;;;;;;;4985081;28;20109;-70
2021/03/13 08:54:39;;;;;;;40.47;4.90;;;;;;;;;;4984131;28;20114;-70
2021/03/13 08:57:12;;;;;;;50.55;7.95;;;;;;;;;;4993319;28;20042;-70
2021/03/13 08:59:44;;;;;;;43.10;6.85;;;;;;;;;;4987994;28;20038;-68
2021/03/13 09:02:15;;;;;;;40.97;5.38;;;;;;;;;;4983302;28;20018;-70
2021/03/13 09:04:42;;;;;;;26.67;4.05;;;;;;;;;;4984833;28;20019;-70
2021/03/13 09:07:09;;;;;;;27.73;4.68;;;;;;;;;;4983538;28;20019;-70
2021/03/13 09:09:37;;;;;;;41.75;6.22;;;;;;;;;;4983969;28;20030;-70
2021/03/13 09:12:03;;;;;;;32.45;4.13;;;;;;;;;;4982266;28;20409;-70
2021/03/13 09:14:30;;;;;;;32.20;6.32;;;;;;;;;;4984861;28;20053;-67
2021/03/13 09:16:56;;;;;;;35.17;6.10;;;;;;;;;;4986429;28;20026;-70
2021/03/13 09:19:24;;;;;;;33.92;5.25;;;;;;;;;;4979483;28;20045;-64
2021/03/13 09:21:50;;;;;;;32.70;4.15;;;;;;;;;;4984013;28;20026;-68
2021/03/13 09:24:27;;;;;;;28.50;5.15;;;;;;;;;;4991865;28;20026;-69
2021/03/13 09:26:57;;;;;;;46.60;7.15;;;;;;;;;;4989587;28;20029;-71
2021/03/13 09:29:36;;;;;;;45.28;6.45;;;;;;;;;;4993247;28;20026;-68
2021/03/13 09:32:06;;;;;;;40.53;8.55;;;;;;;;;;4989398;28;20125;-69
2021/03/13 09:34:34;;;;;;;35.42;6.65;;;;;;;;;;4988966;28;20522;-68
2021/03/13 09:37:09;;;;;;;52.00;7.53;;;;;;;;;;4991890;28;20026;-69
2021/03/13 09:39:35;;;;;;;42.63;6.03;;;;;;;;;;4991958;28;20404;-67
2021/03/13 09:42:03;;;;;;;41.40;7.40;;;;;;;;;;4992060;28;20034;-67
2021/03/13 09:44:34;;;;;;;47.30;9.10;;;;;;;;;;4997570;28;20033;-71
2021/03/13 09:47:00;;;;;;;50.35;7.00;;;;;;;;;;4980654;28;20057;-68
2021/03/13 09:49:27;;;;;;;32.28;4.95;;;;;;;;;;4991518;28;20054;-70
2021/03/13 09:51:53;;;;;;;23.65;4.25;;;;;;;;;;4982123;28;20038;-70
2021/03/13 09:54:19;;;;;;;37.78;6.03;;;;;;;;;;4983644;28;20427;-71
2021/03/13 09:56:45;;;;;;;39.40;6.65;;;;;;;;;;4988750;28;20065;-69
2021/03/13 09:59:12;;;;;;;32.17;7.25;;;;;;;;;;4988988;28;20116;-66
2021/03/13 10:01:38;;;;;;;24.52;5.55;;;;;;;;;;4981330;28;20190;-64
2021/03/13 10:04:04;;;;;;;25.52;5.50;;;;;;;;;;4980722;28;20038;-72
2021/03/13 10:06:30;;;;;;;38.88;6.00;;;;;;;;;;4982827;28;20186;-72
2021/03/13 10:08:59;;;;;;;31.63;5.10;;;;;;;;;;4984478;28;20041;-71
2021/03/13 10:11:39;;;;;;;30.63;7.38;;;;;;;;;;4989778;28;20093;-66
2021/03/13 10:14:05;;;;;;;39.47;6.53;;;;;;;;;;4987560;28;20031;-73
2021/03/13 10:16:33;;;;;;;29.73;7.53;;;;;;;;;;4983147;28;20034;-69
2021/03/13 10:18:59;;;;;;;22.92;4.57;;;;;;;;;;4989736;28;20396;-69
2021/03/13 10:21:25;;;;;;;34.10;5.85;;;;;;;;;;4990954;28;20109;-71
2021/03/13 10:23:58;;;;;;;32.58;4.75;;;;;;;;;;4986680;28;20034;-67
2021/03/13 10:26:27;;;;;;;24.20;4.78;;;;;;;;;;4987549;28;20042;-69
2021/03/13 10:28:53;;;;;;;32.83;7.05;;;;;;;;;;4980901;28;20038;-67
2021/03/13 10:31:20;;;;;;;32.97;5.13;;;;;;;;;;4986662;28;20952;-67
2021/03/13 10:33:47;;;;;;;23.02;4.53;;;;;;;;;;4986938;28;20030;-68
2021/03/13 10:36:14;;;;;;;31.58;5.72;;;;;;;;;;4982182;28;20082;-69
2021/03/13 10:38:41;;;;;;;51.22;7.30;;;;;;;;;;4985525;28;20023;-70
2021/03/13 10:41:09;;;;;;;30.70;7.00;;;;;;;;;;4982494;28;20026;-73
2021/03/13 10:43:43;;;;;;;28.10;6.20;;;;;;;;;;4989181;28;20147;-69
2021/03/13 10:46:16;;;;;;;35.00;5.70;;;;;;;;;;4983921;28;20027;-70
2021/03/13 10:48:52;;;;;;;46.10;6.68;;;;;;;;;;4983302;28;20059;-69
2021/03/13 10:51:21;;;;;;;40.40;6.32;;;;;;;;;;4985797;28;20041;-71
2021/03/13 10:53:47;;;;;;;20.60;4.47;;;;;;;;;;4983740;28;20030;-69
2021/03/13 10:56:17;;;;;;;23.55;5.75;;;;;;;;;;4986843;28;20037;-68
2021/03/13 10:58:47;;;;;;;17.25;3.33;;;;;;;;;;4986905;28;20041;-68
2021/03/13 11:01:14;;;;;;;19.67;4.55;;;;;;;;;;4978705;28;20053;-67
2021/03/13 11:03:42;;;;;;;20.13;4.30;;;;;;;;;;4982784;28;20026;-68
2021/03/13 11:06:08;;;;;;;28.15;4.18;;;;;;;;;;5001706;28;20041;-70
2021/03/13 11:08:34;;;;;;;24.23;3.80;;;;;;;;;;4990065;28;20030;-69
2021/03/13 11:11:00;;;;;;;21.27;4.10;;;;;;;;;;4984792;28;20038;-71
2021/03/13 11:13:26;;;;;;;11.73;2.17;;;;;;;;;;4978650;28;20034;-67
2021/03/13 11:15:53;;;;;;;17.63;3.50;;;;;;;;;;4982478;28;20026;-69
2021/03/13 11:18:19;;;;;;;24.83;3.35;;;;;;;;;;4979497;28;20045;-70
2021/03/13 11:20:46;;;;;;;24.65;3.28;;;;;;;;;;4981120;28;20019;-72
2021/03/13 11:23:12;;;;;;;20.05;3.70;;;;;;;;;;4984381;28;20077;-70
2021/03/13 11:25:38;;;;;;;18.50;3.75;;;;;;;;;;4989228;28;20033;-69
2021/03/13 11:28:05;;;;;;;21.40;4.05;;;;;;;;;;4984057;28;20034;-71
2021/03/13 11:30:32;;;;;;;23.58;3.65;;;;;;;;;;4975831;28;20034;-69
2021/03/13 11:32:58;;;;;;;18.58;4.07;;;;;;;;;;4984273;28;20027;-71
2021/03/13 11:35:25;;;;;;;12.23;3.05;;;;;;;;;;4987340;28;20068;-67
2021/03/13 11:37:51;;;;;;;21.13;3.30;;;;;;;;;;4985078;28;20057;-71
2021/03/13 11:40:19;;;;;;;15.32;3.63;;;;;;;;;;4988476;28;20030;-68
2021/03/13 11:42:46;;;;;;;14.52;3.30;;;;;;;;;;4983917;28;20535;-67
2021/03/13 11:45:13;;;;;;;25.25;4.82;;;;;;;;;;4983307;28;20029;-70
2021/03/13 11:47:39;;;;;;;31.40;4.38;;;;;;;;;;4978843;28;20084;-70
2021/03/13 11:50:07;;;;;;;15.73;2.78;;;;;;;;;;4982498;28;20047;-71
2021/03/13 11:52:33;;;;;;;18.73;4.00;;;;;;;;;;4981687;28;20026;-68
2021/03/13 11:55:00;;;;;;;13.00;3.15;;;;;;;;;;4981877;28;20480;-72
2021/03/13 11:57:26;;;;;;;24.33;4.35;;;;;;;;;;4975420;28;20026;-75
2021/03/13 11:59:52;;;;;;;22.70;4.65;;;;;;;;;;4975761;28;20493;-71
2021/03/13 12:02:19;;;;;;;17.48;4.28;;;;;;;;;;4978936;28;20034;-68
2021/03/13 12:04:45;;;;;;;22.05;4.07;;;;;;;;;;4978663;28;20508;-73
2021/03/13 12:07:13;;;;;;;20.13;3.28;;;;;;;;;;4981188;28;20050;-75
2021/03/13 12:09:39;;;;;;;28.17;4.22;;;;;;;;;;4982240;28;20031;-67
2021/03/13 12:12:06;;;;;;;25.02;4.03;;;;;;;;;;4981182;28;22302;-74
2021/03/13 12:14:34;;;;;;;22.05;4.50;;;;;;;;;;4976985;28;20026;-75
2021/03/13 12:17:00;;;;;;;26.50;4.65;;;;;;;;;;4978160;28;20045;-74
2021/03/13 12:19:26;;;;;;;17.25;3.80;;;;;;;;;;4980954;28;20399;-74
2021/03/13 12:21:53;;;;;;;13.20;3.20;;;;;;;;;;4979613;28;20536;-65
2021/03/13 12:24:19;;;;;;;19.92;3.67;;;;;;;;;;4981800;28;20027;-73
2021/03/13 12:26:45;;;;;;;26.63;3.95;;;;;;;;;;4980649;28;20038;-70
2021/03/13 12:29:11;;;;;;;25.00;5.40;;;;;;;;;;4983965;28;20034;-68
2021/03/13 12:31:37;;;;;;;22.83;3.90;;;;;;;;;;4985405;28;20105;-73
2021/03/13 12:34:04;;;;;;;28.13;4.65;;;;;;;;;;4979576;28;20039;-75
2021/03/13 12:36:30;;;;;;;27.20;5.25;;;;;;;;;;4990163;28;20623;-74
2021/03/13 12:38:56;;;;;;;19.52;2.75;;;;;;;;;;4981244;28;20034;-71
2021/03/13 12:41:22;;;;;;;16.13;2.90;;;;;;;;;;4981204;28;20025;-75
2021/03/13 12:43:50;;;;;;;24.52;4.07;;;;;;;;;;4980976;28;20035;-70
2021/03/13 12:46:16;;;;;;;18.88;2.50;;;;;;;;;;4983789;28;20325;-74
2021/03/13 12:48:49;;;;;;;19.25;3.38;;;;;;;;;;4979335;28;20152;-69
2021/03/13 12:51:16;;;;;;;19.73;2.45;;;;;;;;;;4975575;28;21439;-74
2021/03/13 12:53:43;;;;;;;22.67;3.30;;;;;;;;;;4969908;28;20049;-76
2021/03/13 12:56:09;;;;;;;19.40;4.68;;;;;;;;;;4972506;28;20104;-69
2021/03/13 12:58:35;;;;;;;20.42;2.85;;;;;;;;;;4990295;28;20019;-65
2021/03/13 13:01:01;;;;;;;22.30;3.13;;;;;;;;;;4993157;28;20026;-69
2021/03/13 13:03:27;;;;;;;12.23;2.58;;;;;;;;;;4985841;28;20076;-65
2021/03/13 13:05:53;;;;;;;19.17;4.03;;;;;;;;;;4982923;28;20042;-73
2021/03/13 13:08:19;;;;;;;23.38;4.32;;;;;;;;;;4988313;28;20076;-71
2021/03/13 13:10:46;;;;;;;12.07;3.17;;;;;;;;;;4985280;28;20037;-72
2021/03/13 13:13:16;;;;;;;17.83;3.50;;;;;;;;;;4986105;28;20114;-71
2021/03/13 13:15:42;;;;;;;17.50;3.10;;;;;;;;;;4983385;28;20042;-70
2021/03/13 13:18:08;;;;;;;18.40;2.42;;;;;;;;;;4988318;28;20030;-72
2021/03/13 13:20:34;;;;;;;15.68;3.17;;;;;;;;;;4979005;28;20026;-68
2021/03/13 13:23:00;;;;;;;14.10;3.75;;;;;;;;;;4979525;28;20022;-72
2021/03/13 13:25:27;;;;;;;21.15;3.08;;;;;;;;;;4979389;28;20051;-74
2021/03/13 13:27:53;;;;;;;15.82;3.80;;;;;;;;;;4989845;28;20034;-67
2021/03/13 13:30:19;;;;;;;12.35;2.83;;;;;;;;;;4978389;28;20026;-64
2021/03/13 13:32:45;;;;;;;17.48;2.85;;;;;;;;;;4985855;28;20084;-70
2021/03/13 13:35:12;;;;;;;7.90;2.88;;;;;;;;;;4982147;28;20073;-66
2021/03/13 13:37:38;;;;;;;11.05;2.88;;;;;;;;;;4985982;28;20113;-72
2021/03/13 13:40:06;;;;;;;15.18;2.47;;;;;;;;;;4984540;28;20055;-78
2021/03/13 13:42:32;;;;;;;20.25;2.53;;;;;;;;;;4988361;28;20018;-72
2021/03/13 13:44:58;;;;;;;15.88;2.55;;;;;;;;;;4988913;28;20038;-71
2021/03/13 13:47:24;;;;;;;15.40;3.28;;;;;;;;;;4985755;28;20033;-69
2021/03/13 13:49:50;;;;;;;10.85;3.08;;;;;;;;;;4980138;28;20046;-70
2021/03/13 13:52:17;;;;;;;13.43;2.70;;;;;;;;;;4991026;28;20080;-64
2021/03/13 13:54:43;;;;;;;17.25;3.90;;;;;;;;;;4979286;28;20030;-71
2021/03/13 13:57:09;;;;;;;11.32;2.95;;;;;;;;;;4981483;28;20514;-70
2021/03/13 13:59:35;;;;;;;11.60;2.35;;;;;;;;;;4986948;28;20106;-74
2021/03/13 14:02:01;;;;;;;18.15;2.08;;;;;;;;;;4990520;28;20034;-74
2021/03/13 14:04:27;;;;;;;21.00;3.50;;;;;;;;;;4984283;28;20510;-72
2021/03/13 14:06:54;;;;;;;17.95;2.67;;;;;;;;;;4985534;28;20093;-73
2021/03/13 14:09:20;;;;;;;13.80;2.85;;;;;;;;;;4980166;28;20978;-69
2021/03/13 14:11:46;;;;;;;21.23;2.63;;;;;;;;;;4981678;28;20037;-73
2021/03/13 14:14:12;;;;;;;9.23;2.53;;;;;;;;;;4981465;28;20081;-70
2021/03/13 14:16:38;;;;;;;16.60;2.33;;;;;;;;;;4985876;28;20029;-71
2021/03/13 14:19:04;;;;;;;13.55;2.00;;;;;;;;;;4980145;28;20528;-72
2021/03/13 14:21:30;;;;;;;11.52;2.08;;;;;;;;;;4982974;28;20449;-71
2021/03/13 14:23:56;;;;;;;17.75;3.25;;;;;;;;;;4983086;28;20026;-72
2021/03/13 14:26:24;;;;;;;15.98;3.00;;;;;;;;;;4991938;28;20023;-72
2021/03/13 14:28:51;;;;;;;18.13;3.42;;;;;;;;;;4977880;28;20038;-68
2021/03/13 14:31:17;;;;;;;23.63;2.53;;;;;;;;;;4979137;28;20029;-71
2021/03/13 14:33:43;;;;;;;21.42;2.97;;;;;;;;;;4991504;28;20022;-70
2021/03/13 14:36:09;;;;;;;12.18;2.25;;;;;;;;;;4978301;28;20118;-69
2021/03/13 14:38:36;;;;;;;13.07;2.85;;;;;;;;;;4985748;28;20042;-69